createdAt,value
2018-07-27T00:01:34.376Z,2.3
2018-07-27T00:04:34.378Z,2.3
2018-07-27T00:07:34.399Z,2.4
2018-07-27T00:10:34.303Z,2.4
2018-07-27T00:13:34.447Z,2.4
2018-07-27T00:16:34.454Z,2.3
2018-07-27T00:19:34.187Z,2.3
2018-07-27T00:22:34.292Z,2.4
2018-07-27T00:25:34.357Z,2.5
2018-07-27T00:28:34.387Z,2.4
2018-07-27T00:31:34.468Z,2.4
2018-07-27T00:34:34.300Z,2.7
2018-07-27T00:37:34.326Z,2.7
2018-07-27T00:40:34.314Z,2.4
2018-07-27T00:43:34.449Z,2.3
2018-07-27T00:46:34.249Z,2.4
2018-07-27T00:49:34.372Z,2.3
2018-07-27T00:52:34.434Z,2.3
2018-07-27T00:55:34.210Z,2.2
2018-07-27T00:58:34.213Z,2.6
2018-07-27T01:01:34.432Z,2.4
2018-07-27T01:04:34.444Z,2.3
2018-07-27T01:07:34.376Z,2.3
2018-07-27T01:10:34.419Z,2.2
2018-07-27T01:13:34.428Z,2.3
2018-07-27T01:16:34.352Z,2.2
2018-07-27T01:19:34.672Z,2.2
2018-07-27T01:22:34.510Z,2.1
2018-07-27T01:25:34.425Z,2.2
2018-07-27T01:28:34.309Z,2.1
2018-07-27T01:31:34.368Z,2.2
2018-07-27T01:34:34.167Z,2.2
2018-07-27T01:37:34.413Z,2.3
2018-07-27T01:40:34.494Z,2.3
2018-07-27T01:43:34.272Z,2.3
2018-07-27T01:46:34.262Z,2.3
2018-07-27T01:49:34.274Z,2.4
2018-07-27T01:52:34.164Z,2.3
2018-07-27T01:55:34.249Z,2.2
2018-07-27T01:58:34.423Z,2.1
2018-07-27T02:01:34.232Z,2.2
2018-07-27T02:04:34.363Z,2.3
2018-07-27T02:07:34.389Z,2.4
2018-07-27T02:10:34.039Z,2.3
2018-07-27T02:13:34.348Z,2.3
2018-07-27T02:16:34.300Z,2.2
2018-07-27T02:19:34.150Z,2.1
2018-07-27T02:22:34.305Z,2.2
2018-07-27T02:25:34.216Z,2.2
2018-07-27T02:28:34.186Z,2.2
2018-07-27T02:31:34.591Z,2.1
2018-07-27T02:34:34.228Z,2.4
2018-07-27T02:37:34.181Z,2.2
2018-07-27T02:40:34.230Z,2.2
2018-07-27T02:43:34.272Z,2.2
2018-07-27T02:46:34.302Z,2.3
2018-07-27T02:49:34.291Z,2.3
2018-07-27T02:52:34.535Z,2.3
2018-07-27T02:55:34.115Z,2.2
2018-07-27T02:58:34.479Z,2.2
2018-07-27T03:01:34.205Z,2.2
2018-07-27T03:04:34.260Z,2.2
2018-07-27T03:07:34.356Z,2.1
2018-07-27T03:10:34.298Z,2.1
2018-07-27T03:13:34.314Z,2.2
2018-07-27T03:16:34.442Z,2.2
2018-07-27T03:19:34.804Z,2.2
2018-07-27T03:22:34.143Z,2.2
2018-07-27T03:25:34.386Z,2.1
2018-07-27T03:28:34.272Z,2.2
2018-07-27T03:31:34.239Z,2.2
2018-07-27T03:34:34.149Z,2.6
2018-07-27T03:37:34.272Z,2.4
2018-07-27T03:40:34.210Z,2.7
2018-07-27T03:43:34.388Z,2.5
2018-07-27T03:46:34.393Z,2.3
2018-07-27T03:49:34.106Z,2.3
2018-07-27T03:52:34.293Z,2.3
2018-07-27T03:55:34.621Z,2.5
2018-07-27T03:58:34.112Z,2.3
2018-07-27T04:01:34.314Z,2.3
2018-07-27T04:04:34.243Z,2.2
2018-07-27T04:07:34.126Z,2.2
2018-07-27T04:10:34.448Z,2.2
2018-07-27T04:13:34.288Z,2.1
2018-07-27T04:16:34.110Z,2.2
2018-07-27T04:19:34.552Z,2.3
2018-07-27T04:22:34.807Z,2.2
2018-07-27T04:25:34.153Z,2.2
2018-07-27T04:28:34.350Z,2.3
2018-07-27T04:31:34.319Z,2.3
2018-07-27T04:34:34.243Z,2.3
2018-07-27T04:37:34.371Z,2.3
2018-07-27T04:40:34.222Z,2.1
2018-07-27T04:43:34.068Z,2.2
2018-07-27T04:46:34.399Z,2.1
2018-07-27T04:49:34.166Z,2.2
2018-07-27T04:52:34.164Z,2.3
2018-07-27T04:55:34.156Z,2.2
2018-07-27T04:58:34.100Z,2.1
2018-07-27T05:01:34.125Z,5.3
2018-07-27T05:04:34.909Z,6.3
2018-07-27T05:07:34.409Z,8.5
2018-07-27T05:10:34.140Z,9.2
2018-07-27T05:13:34.644Z,9.5
2018-07-27T05:16:34.146Z,9.6
2018-07-27T05:19:34.121Z,8.7
2018-07-27T05:22:34.274Z,9.8
2018-07-27T05:25:34.317Z,8.7
2018-07-27T05:28:34.065Z,8.6
2018-07-27T05:31:34.572Z,8.1
2018-07-27T05:34:34.169Z,7.7
2018-07-27T05:37:34.256Z,8.5
2018-07-27T05:40:34.323Z,10.1
2018-07-27T05:43:34.207Z,9.5
2018-07-27T05:46:34.097Z,11.5
2018-07-27T05:49:34.267Z,16.4
2018-07-27T05:52:34.303Z,15.3
2018-07-27T05:55:57.582Z,19.1
2018-07-27T05:58:34.102Z,15.1
2018-07-27T06:01:34.071Z,13.8
2018-07-27T06:04:34.182Z,14.7
2018-07-27T06:07:34.120Z,14
2018-07-27T06:10:34.314Z,12.9
2018-07-27T06:13:34.242Z,13.8
2018-07-27T06:16:34.093Z,13.9
2018-07-27T06:19:34.234Z,14.4
2018-07-27T06:22:34.271Z,13.7
2018-07-27T06:25:34.860Z,17.3
2018-07-27T06:28:34.082Z,15.4
2018-07-27T06:31:34.193Z,18
2018-07-27T06:34:34.140Z,19.1
2018-07-27T06:37:34.147Z,19
2018-07-27T06:40:34.218Z,19.5
2018-07-27T06:43:34.042Z,19.9
2018-07-27T06:46:34.195Z,19.1
2018-07-27T06:49:34.178Z,16.3
2018-07-27T06:52:35.720Z,15.9
2018-07-27T06:55:34.363Z,14.6
2018-07-27T06:58:34.271Z,14.9
2018-07-27T07:01:34.050Z,15.5
2018-07-27T07:04:34.172Z,16.3
2018-07-27T07:07:34.189Z,15.3
2018-07-27T07:10:34.052Z,14.9
2018-07-27T07:13:34.157Z,13.7
2018-07-27T07:16:34.088Z,15
2018-07-27T07:19:34.111Z,13.5
2018-07-27T07:22:34.053Z,12.4
2018-07-27T07:25:36.736Z,13.3
2018-07-27T07:28:34.027Z,12.3
2018-07-27T07:31:34.347Z,13.2
2018-07-27T07:34:34.063Z,13.4
2018-07-27T07:37:34.048Z,14
2018-07-27T07:40:34.195Z,14.1
2018-07-27T07:43:34.090Z,14
2018-07-27T07:46:34.373Z,12.9
2018-07-27T07:49:34.206Z,12.9
2018-07-27T07:52:34.091Z,12.6
2018-07-27T07:55:34.060Z,11.5
2018-07-27T07:58:35.222Z,12.4
2018-07-27T08:01:34.196Z,15.5
2018-07-27T08:04:34.037Z,18
2018-07-27T08:07:34.433Z,16.1
2018-07-27T08:10:34.280Z,16.6
2018-07-27T08:13:34.216Z,15.1
2018-07-27T08:16:34.224Z,14.3
2018-07-27T08:19:34.009Z,14
2018-07-27T08:22:33.998Z,13.8
2018-07-27T08:25:34.015Z,13
2018-07-27T09:14:09.303Z,15.5
2018-07-27T09:17:09.157Z,16
2018-07-27T09:20:09.430Z,15.8
2018-07-27T09:23:09.608Z,14.2
2018-07-27T09:26:09.407Z,14.8
2018-07-27T09:29:09.317Z,14.4
2018-07-27T09:32:09.453Z,15.2
2018-07-27T09:40:18.798Z,11.7
2018-07-27T09:43:18.914Z,11.9
2018-07-27T09:46:18.712Z,12.9
2018-07-27T09:49:18.713Z,12.6
2018-07-27T09:52:18.836Z,13.3
2018-07-27T09:55:18.878Z,12.4
2018-07-27T09:58:18.807Z,12.6
2018-07-27T10:01:18.818Z,11.9
2018-07-27T10:04:18.864Z,10.4
2018-07-27T10:10:02.766Z,10.5
2018-07-27T10:13:02.888Z,10.2
2018-07-27T10:16:02.804Z,10.6
2018-07-27T10:19:02.936Z,10.6
2018-07-27T10:22:02.785Z,10.2
2018-07-27T10:25:02.688Z,9
2018-07-27T10:28:03.032Z,10.3
2018-07-27T10:31:02.961Z,9.3
2018-07-27T10:34:02.895Z,9.6
2018-07-27T10:37:03.254Z,8.8
2018-07-27T10:40:02.972Z,8.6
2018-07-27T10:43:02.732Z,7.4
2018-07-27T10:46:02.707Z,7.6
2018-07-27T10:49:02.888Z,8
2018-07-27T10:52:02.794Z,8.4
2018-07-27T10:55:03.213Z,9.8
2018-07-27T10:58:02.627Z,8.5
2018-07-27T11:01:02.686Z,8.1
2018-07-27T11:04:02.722Z,7.4
2018-07-27T11:07:02.842Z,8
2018-07-27T11:10:02.818Z,7.5
2018-07-27T11:13:02.796Z,7.3
2018-07-27T11:16:02.878Z,6.9
2018-07-27T11:19:02.746Z,7.2
2018-07-27T11:22:02.765Z,7.6
2018-07-27T11:25:02.901Z,8.2
2018-07-27T11:28:02.765Z,7.9
2018-07-27T11:31:03.740Z,8.3
2018-07-27T11:34:03.105Z,8.1
2018-07-27T11:37:04.260Z,8.1
2018-07-27T11:40:02.737Z,8.3
2018-07-27T11:43:02.719Z,8.8
2018-07-27T11:46:02.584Z,8.1
2018-07-27T11:49:03.040Z,8.1
2018-07-27T11:52:02.878Z,7.9
2018-07-27T11:55:03.039Z,7.8
2018-07-27T11:58:02.711Z,8.7
2018-07-27T12:01:02.771Z,7.5
2018-07-27T12:04:02.838Z,8.6
2018-07-27T12:07:04.435Z,9.5
2018-07-27T12:10:02.921Z,10
2018-07-27T12:13:02.791Z,9.9
2018-07-27T12:16:02.879Z,9.7
2018-07-27T12:19:02.748Z,10.7
2018-07-27T12:22:02.766Z,9.1
2018-07-27T12:25:02.810Z,8
2018-07-27T12:28:03.106Z,7.3
2018-07-27T12:31:02.939Z,7.4
2018-07-27T12:34:02.784Z,8.3
2018-07-27T12:37:02.956Z,9.6
2018-07-27T12:40:02.889Z,12.6
2018-07-27T12:43:02.629Z,11.7
2018-07-27T12:46:02.943Z,13.3
2018-07-27T12:49:02.978Z,11
2018-07-27T12:52:03.262Z,10.8
2018-07-27T12:55:02.779Z,9.7
2018-07-27T12:58:02.790Z,9.1
2018-07-27T13:01:02.847Z,8.4
2018-07-27T13:04:02.773Z,8.2
2018-07-27T13:07:02.773Z,7.8
2018-07-27T13:10:02.714Z,7.8
2018-07-27T13:13:02.896Z,8.2
2018-07-27T13:16:03.713Z,7.6
2018-07-27T13:19:02.965Z,7.8
2018-07-27T13:22:04.467Z,7.2
2018-07-27T13:25:04.092Z,7.7
2018-07-27T13:28:03.160Z,8.2
2018-07-27T13:31:02.763Z,8.4
2018-07-27T13:34:03.824Z,8.1
2018-07-27T13:37:02.598Z,7.6
2018-07-27T13:40:02.886Z,7
2018-07-27T13:43:02.828Z,8
2018-07-27T13:46:02.817Z,7.1
2018-07-27T13:49:02.819Z,11.5
2018-07-27T13:52:02.794Z,9.4
2018-07-27T13:55:02.879Z,7.5
2018-07-27T13:58:02.677Z,7.1
2018-07-27T14:01:02.552Z,7.6
2018-07-27T14:04:02.700Z,7.1
2018-07-27T14:07:02.471Z,7.2
2018-07-27T14:10:02.597Z,7
2018-07-27T14:13:02.770Z,7.6
2018-07-27T14:16:02.537Z,6.9
2018-07-27T14:19:02.555Z,6.7
2018-07-27T14:22:02.449Z,7.1
2018-07-27T14:25:02.436Z,6.2
2018-07-27T14:33:35.070Z,10.8
2018-07-27T14:36:35.855Z,9.1
2018-07-27T14:39:35.145Z,11.3
2018-07-27T14:42:35.113Z,11.9
2018-07-27T14:59:27.209Z,6.6
2018-07-27T15:02:27.208Z,8
2018-07-27T15:05:27.265Z,7.2
2018-07-27T15:10:47.099Z,5.5
2018-07-27T15:13:46.997Z,6.4
2018-07-27T15:31:29.108Z,6.7
2018-07-27T15:34:29.025Z,7.8
2018-07-27T15:37:29.189Z,7.4
2018-07-27T15:40:29.354Z,6.1
2018-07-27T15:46:47.964Z,5.2
2018-07-27T15:49:47.474Z,5.7
2018-07-27T15:52:47.673Z,7.1
2018-07-27T15:55:47.373Z,7.9
2018-07-27T15:58:47.390Z,7.2
2018-07-27T16:01:47.596Z,9.5
2018-07-27T16:04:47.391Z,9.9
2018-07-27T16:11:47.295Z,6.9
2018-07-27T16:14:46.663Z,7.2
2018-07-27T16:17:46.756Z,6.5
2018-07-27T16:20:46.481Z,7.8
2018-07-27T16:23:46.727Z,8
2018-07-27T16:26:46.635Z,8.1
2018-07-27T16:29:46.893Z,6.7
2018-07-27T16:32:46.682Z,7.6
2018-07-27T16:35:46.489Z,9.2
2018-07-27T16:38:46.898Z,8.2
2018-07-27T16:41:46.425Z,7.3
2018-07-27T16:44:46.574Z,6.7
2018-07-27T16:47:46.978Z,6.1
2018-07-27T16:50:46.760Z,6.7
2018-07-27T16:53:46.866Z,7.1
2018-07-27T16:56:46.369Z,5.9
2018-07-27T16:59:48.859Z,6.6
2018-07-27T17:02:46.541Z,6.1
2018-07-27T17:05:46.446Z,5.5
2018-07-27T17:08:46.601Z,6.3
2018-07-27T17:11:46.430Z,6
2018-07-27T17:14:46.711Z,6.7
2018-07-27T17:17:46.587Z,6
2018-07-27T17:20:46.537Z,5.6
2018-07-27T17:23:46.781Z,5.2
2018-07-27T17:26:46.565Z,4.6
2018-07-27T17:29:46.438Z,4.3
2018-07-27T17:32:47.567Z,4.3
2018-07-27T17:35:46.531Z,5
2018-07-27T17:38:46.755Z,4.7
2018-07-27T17:41:46.427Z,5.3
2018-07-27T17:44:46.467Z,4.8
2018-07-27T17:47:46.476Z,4.4
2018-07-27T17:50:46.545Z,4.4
2018-07-27T17:53:46.489Z,4.3
2018-07-27T17:56:46.963Z,4.7
2018-07-27T17:59:46.552Z,4.5
2018-07-27T18:02:46.543Z,4.9
2018-07-27T18:05:46.441Z,4.7
2018-07-27T18:08:46.429Z,4.7
2018-07-27T18:11:46.529Z,4.6
2018-07-27T18:14:46.823Z,4.9
2018-07-27T18:17:46.571Z,4.4
2018-07-27T18:20:46.523Z,4.9
2018-07-27T18:23:46.454Z,4.7
2018-07-27T18:26:46.626Z,4.3
2018-07-27T18:29:46.576Z,4.2
2018-07-27T18:32:46.349Z,4.4
2018-07-27T18:35:46.667Z,4.2
2018-07-27T18:38:46.750Z,4.5
2018-07-27T18:41:46.374Z,4.6
2018-07-27T18:44:46.779Z,4.3
2018-07-27T18:47:46.500Z,4.1
2018-07-27T18:50:46.833Z,4
2018-07-27T18:53:46.761Z,3.9
2018-07-27T18:56:46.380Z,3.8
2018-07-27T18:59:46.761Z,4.4
2018-07-27T19:02:46.677Z,4
2018-07-27T19:05:46.473Z,3.9
2018-07-27T19:08:46.590Z,4
2018-07-27T19:11:46.688Z,4
2018-07-27T19:14:46.400Z,4
2018-07-27T19:17:46.758Z,3.9
2018-07-27T19:20:46.659Z,3.8
2018-07-27T19:23:46.786Z,3.8
2018-07-27T19:26:46.687Z,3.6
2018-07-27T19:29:46.411Z,3.8
2018-07-27T19:32:46.444Z,3.8
2018-07-27T19:35:46.521Z,3.8
2018-07-27T19:38:46.505Z,3.8
2018-07-27T19:41:46.306Z,3.7
2018-07-27T19:44:46.315Z,3.8
2018-07-27T19:47:46.475Z,3.9
2018-07-27T19:50:46.530Z,4.2
2018-07-27T19:53:46.422Z,3.9
2018-07-27T19:56:46.504Z,3.8
2018-07-27T19:59:46.691Z,3.9
2018-07-27T20:02:47.053Z,3.8
2018-07-27T20:05:46.412Z,3.7
2018-07-27T20:08:46.500Z,3.9
2018-07-27T20:11:46.316Z,3.6
2018-07-27T20:14:46.812Z,3.6
2018-07-27T20:17:46.518Z,3.8
2018-07-27T20:20:46.741Z,3.6
2018-07-27T20:23:46.674Z,3.5
2018-07-27T20:26:46.765Z,3.5
2018-07-27T20:29:46.533Z,4.3
2018-07-27T20:32:46.528Z,4.9
2018-07-27T20:35:46.478Z,6.8
2018-07-27T20:38:46.551Z,6.4
2018-07-27T20:41:46.481Z,6.6
2018-07-27T20:44:46.435Z,6.7
2018-07-27T20:47:46.492Z,6.4
2018-07-27T20:50:46.413Z,5.7
2018-07-27T20:53:46.674Z,5.1
2018-07-27T20:56:46.621Z,5.7
2018-07-27T20:59:46.455Z,5.1
2018-07-27T21:03:46.475Z,5.6
2018-07-27T21:06:46.454Z,5.5
2018-07-27T21:09:47.180Z,4.5
2018-07-27T21:12:46.537Z,5.2
2018-07-27T21:15:46.734Z,4.3
2018-07-27T21:18:46.547Z,5
2018-07-27T21:21:48.002Z,4.7
2018-07-27T21:24:47.578Z,4.8
2018-07-27T21:27:46.877Z,4.2
2018-07-27T21:30:46.614Z,3.8
2018-07-27T21:33:46.588Z,4
2018-07-27T21:36:46.528Z,4
2018-07-27T21:39:47.678Z,3.8
2018-07-27T21:42:46.558Z,3.7
2018-07-27T21:45:48.256Z,3.9
2018-07-27T21:48:46.547Z,3.7
2018-07-27T21:51:48.166Z,3.6
2018-07-27T21:54:46.863Z,3.9
2018-07-27T21:57:47.335Z,3.7
2018-07-27T22:00:46.346Z,3.8
2018-07-27T22:03:46.704Z,3.6
2018-07-27T22:06:46.433Z,3.5
2018-07-27T22:09:46.417Z,3.6
2018-07-27T22:12:46.291Z,3.7
2018-07-27T22:15:46.472Z,3.9
2018-07-27T22:18:46.373Z,3.6
2018-07-27T22:21:46.441Z,3.5
2018-07-27T22:24:46.505Z,3.3
2018-07-27T22:27:46.578Z,3.3
2018-07-27T22:30:46.265Z,3.4
2018-07-27T22:33:46.539Z,3.6
2018-07-27T22:36:46.514Z,3.4
2018-07-27T22:39:46.416Z,3.3
2018-07-27T22:42:46.289Z,3.3
2018-07-27T22:45:46.469Z,3.4
2018-07-27T22:48:46.451Z,3.2
2018-07-27T22:51:46.465Z,3.3
2018-07-27T22:54:46.289Z,3.2
2018-07-27T22:57:46.382Z,3.1
2018-07-27T23:00:46.574Z,3.5
2018-07-27T23:03:47.186Z,3.3
2018-07-27T23:06:46.358Z,3.3
2018-07-27T23:09:46.369Z,3.2
2018-07-27T23:12:46.422Z,3.2
2018-07-27T23:15:46.311Z,3.2
2018-07-27T23:18:46.443Z,3.1
